»·PEaware :: N982YR KCRQ-KHHR

N982YR :: KCRQ-KHHR

FLIGHT INFORMATION

Flight Status: Arrived
Operator: Privately registered:
United States
More flights under this callsign
Pilot: Anonymous 15639 (15639)
Aircraft: CESSNA 172 SKYHAWK
(C172)
More flights by this aircraft type
Origin: KCRQ McClellan-Palomar
United States
Destination: KHHR Northrop/Hawthorne Mun
United States
More flights between these airports :: More routes between these airports
Route: +OCN V23 SLI SLI340R WELLZ HHR RY25 LOC
File this flight plan on PilotEdge
Remarks: TEC route SANP7
Altitude:
(Current/Filed)
6,000ft
Speed:
(Current/Filed)
120kts
Departed: 27-Sep-18 03:08 PM
Arrived: 27-Sep-18 03:52 PM
Distance/Time
Traveled:
71nm/0:44
Distance/Time
To Go:
Arrived

Flight Plot

Page will automatically refresh every two minutes.


Map Options




Map Legend


Flown Route
Filed Route
Departure Airport
Arrival Airport
Navaid (VOR, NDB)
Fix

Horizontal Profiles

Position Reports

Time Latitude Longitude Heading Altitude Ground
Speed
27-Sep-18 14:56 33.127543 -117.274789 258 335ft 0kts
27-Sep-18 14:57 33.127543 -117.274789 258 335ft 0kts
27-Sep-18 14:58 33.127543 -117.274790 258 335ft 0kts
27-Sep-18 14:59 33.127543 -117.274790 258 335ft 0kts
27-Sep-18 15:00 33.127543 -117.274790 258 335ft 0kts
27-Sep-18 15:01 33.127543 -117.274790 258 335ft 0kts
27-Sep-18 15:02 33.127543 -117.274790 258 335ft 0kts
27-Sep-18 15:03 33.127543 -117.274790 258 335ft 0kts
27-Sep-18 15:04 33.127725 -117.275184 342 335ft 5kts
27-Sep-18 15:05 33.127895 -117.275237 345 335ft 0kts
27-Sep-18 15:06 33.127895 -117.275237 345 335ft 0kts
27-Sep-18 15:07 33.127895 -117.275237 345 335ft 0kts
27-Sep-18 15:08 33.128374 -117.274188 80 335ft 8kts
27-Sep-18 15:09 33.128680 -117.272757 45 335ft 5kts
27-Sep-18 15:10 33.128433 -117.279344 260 446ft 59kts
27-Sep-18 15:11 33.125104 -117.301068 259 1038ft 74kts
27-Sep-18 15:12 33.121489 -117.325365 260 1698ft 74kts
27-Sep-18 15:13 33.136864 -117.341626 323 2252ft 85kts
27-Sep-18 15:14 33.157362 -117.356875 324 2786ft 88kts
27-Sep-18 15:15 33.178596 -117.372405 324 3298ft 90kts
27-Sep-18 15:16 33.200276 -117.388270 324 3782ft 92kts
27-Sep-18 15:17 33.222359 -117.404388 324 4243ft 94kts
27-Sep-18 15:18 33.243955 -117.421783 312 4682ft 93kts
27-Sep-18 15:19 33.262732 -117.443526 311 5101ft 94kts
27-Sep-18 15:20 33.281630 -117.465521 311 5528ft 95kts
27-Sep-18 15:21 33.300599 -117.487620 311 5941ft 95kts
27-Sep-18 15:22 33.322064 -117.512893 312 6002ft 120kts
27-Sep-18 15:23 33.346077 -117.540824 312 6003ft 120kts
27-Sep-18 15:24 33.369834 -117.568532 311 6005ft 119kts
27-Sep-18 15:25 33.393379 -117.596035 311 6007ft 118kts
27-Sep-18 15:26 33.416833 -117.623458 311 6007ft 117kts
27-Sep-18 15:27 33.440224 -117.650826 311 6006ft 117kts
27-Sep-18 15:28 33.463688 -117.678305 311 6005ft 118kts
27-Sep-18 15:29 33.487276 -117.705959 311 6004ft 119kts
27-Sep-18 15:30 33.510983 -117.733840 311 6002ft 119kts
27-Sep-18 15:31 33.534731 -117.761715 311 6001ft 119kts
27-Sep-18 15:32 33.558593 -117.789734 312 5908ft 121kts
27-Sep-18 15:33 33.582544 -117.817757 312 5411ft 121kts
27-Sep-18 15:34 33.606772 -117.846236 312 4912ft 122kts
27-Sep-18 15:35 33.631116 -117.874898 311 4415ft 123kts
27-Sep-18 15:36 33.655392 -117.903533 311 4004ft 121kts
27-Sep-18 15:37 33.679575 -117.932142 311 4000ft 123kts
27-Sep-18 15:38 33.704071 -117.961080 311 4000ft 124kts
27-Sep-18 15:39 33.728701 -117.990195 311 4000ft 125kts
27-Sep-18 15:40 33.753600 -118.019652 311 4000ft 126kts
27-Sep-18 15:41 33.778649 -118.049302 312 3999ft 127kts
27-Sep-18 15:42 33.813662 -118.057783 351 3997ft 130kts
27-Sep-18 15:43 33.849493 -118.063034 351 3995ft 130kts
27-Sep-18 15:44 33.885471 -118.064893 1 3673ft 130kts
27-Sep-18 15:45 33.921465 -118.062717 1 3000ft 129kts
27-Sep-18 15:46 33.934880 -118.091745 261 2826ft 119kts
27-Sep-18 15:47 33.932415 -118.129533 263 2514ft 114kts
27-Sep-18 15:48 33.930574 -118.168160 264 2019ft 115kts
27-Sep-18 15:49 33.928833 -118.206424 263 1494ft 109kts
27-Sep-18 15:50 33.927304 -118.236775 264 1508ft 83kts
27-Sep-18 15:51 33.926101 -118.265068 263 1169ft 83kts
27-Sep-18 15:52 33.924850 -118.292251 263 762ft 84kts
27-Sep-18 15:53 33.923799 -118.315731 263 377ft 84kts
27-Sep-18 15:54 33.922740 -118.337304 265 67ft 11kts
27-Sep-18 15:55 33.922395 -118.337521 174 67ft 0kts
27-Sep-18 15:56 33.922339 -118.337084 85 67ft 5kts
27-Sep-18 15:57 33.922120 -118.336428 176 67ft 0kts
27-Sep-18 15:58 33.922120 -118.336428 176 67ft 0kts

Navigation Log

Ident Type
1. KCRQ Airport
2. OCN Navaid
3. KELPS Fix
4. DANAH Fix
5. KRAUZ Fix
6. BALBO Fix
7. MIDDS Fix
8. SLI Navaid
9. WELLZ Fix
10. KHHR Airport